createdAt,value
2023-01-26T00:02:17.935Z,-0.50
2023-01-26T00:04:53.194Z,-0.60
2023-01-26T00:07:21.432Z,-0.60
2023-01-26T00:09:56.367Z,-0.60
2023-01-26T00:12:24.836Z,-0.60
2023-01-26T00:15:01.269Z,-0.60
2023-01-26T00:17:29.888Z,-0.60
2023-01-26T00:20:06.398Z,-0.60
2023-01-26T00:22:34.921Z,-0.60
2023-01-26T00:25:10.194Z,-0.50
2023-01-26T00:27:38.630Z,-0.60
2023-01-26T00:30:17.218Z,-0.50
2023-01-26T00:32:45.636Z,-0.50
2023-01-26T00:35:20.221Z,-0.50
2023-01-26T00:37:48.837Z,-0.50
2023-01-26T00:40:24.407Z,-0.40
2023-01-26T00:42:54.582Z,-0.40
2023-01-26T00:45:31.231Z,-0.40
2023-01-26T00:48:00.459Z,-0.50
2023-01-26T00:50:35.273Z,-0.40
2023-01-26T00:53:03.760Z,-0.40
2023-01-26T00:55:45.222Z,-0.40
2023-01-26T00:58:13.791Z,-0.40
2023-01-26T01:00:50.470Z,-0.30
2023-01-26T01:03:18.932Z,-0.30
2023-01-26T01:05:54.426Z,-0.40
2023-01-26T01:08:22.971Z,-0.20
2023-01-26T01:10:57.440Z,-0.20
2023-01-26T01:13:25.784Z,-0.40
2023-01-26T01:16:02.465Z,-0.40
2023-01-26T01:18:30.961Z,-0.40
2023-01-26T01:21:05.289Z,-0.40
2023-01-26T01:23:33.751Z,-0.40
2023-01-26T01:26:09.355Z,-0.30
2023-01-26T01:28:38.932Z,-0.30
2023-01-26T01:31:16.343Z,-0.30
2023-01-26T01:33:45.299Z,-0.30
2023-01-26T01:36:21.263Z,-0.30
2023-01-26T01:38:49.542Z,-0.20
2023-01-26T01:41:27.457Z,-0.30
2023-01-26T01:44:14.392Z,-0.30
2023-01-26T01:47:01.394Z,-0.30
2023-01-26T01:49:39.443Z,-0.20
2023-01-26T01:52:12.624Z,-0.20
2023-01-26T01:54:58.459Z,-0.20
2023-01-26T01:57:46.136Z,-0.20
2023-01-26T02:00:27.430Z,-0.20
2023-01-26T02:03:15.058Z,-0.10
2023-01-26T02:05:58.283Z,-0.10
2023-01-26T02:08:30.830Z,-0.10
2023-01-26T02:11:10.630Z,-0.10
2023-01-26T02:13:40.204Z,-0.10
2023-01-26T02:16:15.516Z,-0.10
2023-01-26T02:18:46.795Z,-0.10
2023-01-26T02:21:25.370Z,-0.10
2023-01-26T02:24:05.538Z,-0.10
2023-01-26T02:26:43.369Z,0.00
2023-01-26T02:29:13.018Z,0.00
2023-01-26T02:31:49.560Z,-0.10
2023-01-26T02:34:18.021Z,-0.10
2023-01-26T02:36:53.454Z,-0.10
2023-01-26T02:39:31.535Z,0.00
2023-01-26T02:42:25.399Z,0.00
2023-01-26T02:44:54.028Z,-0.10
2023-01-26T02:47:29.486Z,-0.10
2023-01-26T02:49:58.557Z,0.00
2023-01-26T02:52:35.485Z,-0.10
2023-01-26T02:55:29.904Z,-0.10
2023-01-26T02:58:14.497Z,0.00
2023-01-26T03:00:42.971Z,0.00
2023-01-26T03:03:22.353Z,0.00
2023-01-26T03:05:50.772Z,0.00
2023-01-26T03:08:26.699Z,0.00
2023-01-26T03:10:55.510Z,0.10
2023-01-26T03:13:32.519Z,0.10
2023-01-26T03:16:06.805Z,0.10
2023-01-26T03:19:00.542Z,0.10
2023-01-26T03:21:46.403Z,0.10
2023-01-26T03:24:39.537Z,0.20
2023-01-26T03:27:29.269Z,0.20
2023-01-26T03:30:06.465Z,0.20
2023-01-26T03:32:35.211Z,0.20
2023-01-26T03:35:10.387Z,0.20
2023-01-26T03:37:40.649Z,0.30
2023-01-26T03:40:34.518Z,0.30
2023-01-26T03:43:26.920Z,0.30
2023-01-26T03:46:21.412Z,0.50
2023-01-26T03:49:07.530Z,0.30
2023-01-26T03:51:59.538Z,0.40
2023-01-26T03:54:52.251Z,0.40
2023-01-26T03:57:27.379Z,0.40
2023-01-26T03:59:55.980Z,0.40
2023-01-26T04:02:49.379Z,0.40
2023-01-26T04:05:36.618Z,0.40
2023-01-26T04:08:30.580Z,0.40
2023-01-26T04:10:58.925Z,0.40
2023-01-26T04:13:51.533Z,0.40
2023-01-26T04:16:43.572Z,0.40
2023-01-26T04:19:30.746Z,0.40
2023-01-26T04:22:07.605Z,0.40
2023-01-26T04:24:36.375Z,0.40
2023-01-26T04:27:05.491Z,0.40
2023-01-26T04:29:40.584Z,0.40
2023-01-26T04:32:08.971Z,0.30
2023-01-26T04:34:45.422Z,0.30
2023-01-26T04:37:13.919Z,0.30
2023-01-26T04:39:49.466Z,0.30
2023-01-26T04:42:17.929Z,0.30
2023-01-26T04:44:52.810Z,0.30
2023-01-26T04:47:22.355Z,0.30
2023-01-26T04:49:58.793Z,0.40
2023-01-26T04:52:30.235Z,0.50
2023-01-26T04:55:05.648Z,0.40
2023-01-26T04:57:47.415Z,0.40
2023-01-26T05:00:16.161Z,0.50
2023-01-26T05:02:51.529Z,0.50
2023-01-26T05:05:21.706Z,0.50
2023-01-26T05:07:57.793Z,0.50
2023-01-26T05:10:26.722Z,0.50
2023-01-26T05:13:01.677Z,0.50
2023-01-26T05:15:30.151Z,0.50
2023-01-26T05:18:00.180Z,0.60
2023-01-26T05:20:36.628Z,0.60
2023-01-26T05:23:05.630Z,0.60
2023-01-26T05:25:40.461Z,0.60
2023-01-26T05:28:08.679Z,0.70
2023-01-26T05:30:43.479Z,0.70
2023-01-26T05:33:13.014Z,0.70
2023-01-26T05:35:49.502Z,0.70
2023-01-26T05:38:17.988Z,0.60
2023-01-26T05:40:53.472Z,0.60
2023-01-26T05:43:22.204Z,0.60
2023-01-26T05:45:57.591Z,0.60
2023-01-26T05:48:26.233Z,0.70
2023-01-26T05:51:04.111Z,0.70
2023-01-26T05:53:32.509Z,0.60
2023-01-26T05:56:14.877Z,0.60
2023-01-26T05:58:49.778Z,0.60
2023-01-26T06:01:24.483Z,0.70
2023-01-26T06:03:52.803Z,0.70
2023-01-26T06:06:29.694Z,0.80
2023-01-26T06:09:00.425Z,1.00
2023-01-26T06:11:35.719Z,0.70
2023-01-26T06:14:04.373Z,0.70
2023-01-26T06:16:39.715Z,0.80
2023-01-26T06:19:09.007Z,0.80
2023-01-26T06:21:45.513Z,0.90
2023-01-26T06:24:14.051Z,0.90
2023-01-26T06:26:48.686Z,0.90
2023-01-26T06:29:17.370Z,0.90
2023-01-26T06:31:52.527Z,0.90
2023-01-26T06:34:21.797Z,0.80
2023-01-26T06:36:58.839Z,0.90
2023-01-26T06:39:27.336Z,0.90
2023-01-26T06:42:02.665Z,0.90
2023-01-26T06:44:32.376Z,0.90
2023-01-26T06:47:07.782Z,1.00
2023-01-26T06:49:36.197Z,1.00
2023-01-26T06:52:33.911Z,1.00
2023-01-26T06:55:11.076Z,1.00
2023-01-26T06:57:52.628Z,1.00
2023-01-26T07:00:21.967Z,0.90
2023-01-26T07:02:56.610Z,0.90
2023-01-26T07:05:25.210Z,1.00
2023-01-26T07:08:01.841Z,0.90
2023-01-26T07:10:30.224Z,0.90
2023-01-26T07:13:05.701Z,0.90
2023-01-26T07:15:41.555Z,0.80
2023-01-26T07:18:10.276Z,0.80
2023-01-26T07:20:45.569Z,0.80
2023-01-26T07:23:15.761Z,0.80
2023-01-26T07:25:51.636Z,0.90
2023-01-26T07:28:20.445Z,0.90
2023-01-26T07:30:55.578Z,0.90
2023-01-26T07:33:24.167Z,1.00
2023-01-26T07:36:01.571Z,0.90
2023-01-26T07:38:31.939Z,0.90
2023-01-26T07:41:06.726Z,0.90
2023-01-26T07:43:35.911Z,0.90
2023-01-26T07:46:11.641Z,0.80
2023-01-26T07:48:41.131Z,0.80
2023-01-26T07:51:17.731Z,0.90
2023-01-26T07:53:50.149Z,0.90
2023-01-26T07:56:27.559Z,0.90
2023-01-26T07:59:03.950Z,0.90
2023-01-26T08:01:32.450Z,0.90
2023-01-26T08:04:07.790Z,0.90
2023-01-26T08:06:36.278Z,0.90
2023-01-26T08:09:15.186Z,0.90
2023-01-26T08:11:43.684Z,0.90
2023-01-26T08:14:18.647Z,0.90
2023-01-26T08:16:48.267Z,0.80
2023-01-26T08:19:23.785Z,0.70
2023-01-26T08:21:53.618Z,0.70
2023-01-26T08:24:30.083Z,0.70
2023-01-26T08:26:58.541Z,0.70
2023-01-26T08:29:33.920Z,0.70
2023-01-26T08:32:02.788Z,0.70
2023-01-26T08:34:37.652Z,0.70
2023-01-26T08:37:05.950Z,0.60
2023-01-26T08:39:42.802Z,0.60
2023-01-26T08:42:11.168Z,0.60
2023-01-26T08:44:47.613Z,0.60
2023-01-26T08:47:16.247Z,0.60
2023-01-26T08:49:50.803Z,0.70
2023-01-26T08:52:21.620Z,0.70
2023-01-26T08:54:58.636Z,0.70
2023-01-26T08:57:27.075Z,0.70
2023-01-26T09:00:01.656Z,0.90
2023-01-26T09:02:30.519Z,0.70
2023-01-26T09:05:05.681Z,0.70
2023-01-26T09:07:34.473Z,0.70
2023-01-26T09:10:10.929Z,0.70
2023-01-26T09:12:41.064Z,0.70
2023-01-26T09:15:17.834Z,0.70
2023-01-26T09:17:46.305Z,0.70
2023-01-26T09:20:21.619Z,0.70
2023-01-26T09:22:49.889Z,0.70
2023-01-26T09:25:26.641Z,0.80
2023-01-26T09:27:55.167Z,0.90
2023-01-26T09:30:31.860Z,0.90
2023-01-26T09:33:00.718Z,0.90
2023-01-26T09:35:36.879Z,0.90
2023-01-26T09:38:05.410Z,0.80
2023-01-26T09:40:50.840Z,1.00
2023-01-26T09:43:26.646Z,0.90
2023-01-26T09:46:12.746Z,0.90
2023-01-26T09:48:45.766Z,1.00
2023-01-26T09:51:26.739Z,1.00
2023-01-26T09:53:58.199Z,1.00
2023-01-26T09:56:44.626Z,1.00
2023-01-26T09:59:22.581Z,1.30
2023-01-26T10:02:06.671Z,1.10
2023-01-26T10:04:38.230Z,1.20
2023-01-26T10:07:17.753Z,1.20
2023-01-26T10:09:48.730Z,1.30
2023-01-26T10:12:28.674Z,1.30
2023-01-26T10:15:02.794Z,1.30
2023-01-26T10:17:41.693Z,1.40
2023-01-26T10:20:19.933Z,1.40
2023-01-26T10:22:58.089Z,1.40
2023-01-26T10:25:32.624Z,1.40
2023-01-26T10:28:10.742Z,1.40
2023-01-26T10:30:41.913Z,1.40
2023-01-26T10:33:23.715Z,1.40
2023-01-26T10:35:52.768Z,1.40
2023-01-26T10:38:48.727Z,1.50
2023-01-26T10:41:29.826Z,1.40
2023-01-26T10:44:08.811Z,1.50
2023-01-26T10:46:39.078Z,1.50
2023-01-26T10:49:23.981Z,1.50
2023-01-26T10:52:08.703Z,1.50
2023-01-26T10:54:44.931Z,1.60
2023-01-26T10:57:26.687Z,1.70
2023-01-26T11:00:05.935Z,1.70
2023-01-26T11:02:36.035Z,1.70
2023-01-26T11:05:27.835Z,1.80
2023-01-26T11:08:00.657Z,1.80
2023-01-26T11:10:38.911Z,1.80
2023-01-26T11:13:24.890Z,1.80
2023-01-26T11:16:11.944Z,1.80
2023-01-26T11:18:47.961Z,1.80
2023-01-26T11:21:28.737Z,1.80
2023-01-26T11:24:05.070Z,1.80
2023-01-26T11:27:14.916Z,1.80
2023-01-26T11:30:05.555Z,1.90
2023-01-26T11:32:50.832Z,1.90
2023-01-26T11:35:30.101Z,1.90
2023-01-26T11:38:15.834Z,1.80
2023-01-26T11:40:58.781Z,1.70
2023-01-26T11:43:44.277Z,1.70
2023-01-26T11:46:35.960Z,1.70
2023-01-26T11:49:35.837Z,1.80
2023-01-26T11:52:13.374Z,1.80
2023-01-26T11:55:05.758Z,1.80
2023-01-26T11:57:49.600Z,1.80
2023-01-26T12:00:30.795Z,1.90
2023-01-26T12:03:04.129Z,1.90
2023-01-26T12:05:49.776Z,1.90
2023-01-26T12:08:24.943Z,2.00
2023-01-26T12:11:28.940Z,2.00
2023-01-26T12:14:14.811Z,2.00
2023-01-26T12:17:11.541Z,2.10
2023-01-26T12:20:00.828Z,2.10
2023-01-26T12:22:34.837Z,2.20
2023-01-26T12:25:21.850Z,2.20
2023-01-26T12:27:58.022Z,2.20
2023-01-26T12:30:41.967Z,2.30
2023-01-26T12:33:12.146Z,2.30
2023-01-26T12:36:14.000Z,2.40
2023-01-26T12:38:56.765Z,2.40
2023-01-26T12:41:42.984Z,2.50
2023-01-26T12:44:25.111Z,2.50
2023-01-26T12:47:03.859Z,2.50
2023-01-26T12:49:37.425Z,2.50
2023-01-26T12:52:18.980Z,2.60
2023-01-26T12:54:56.233Z,2.60
2023-01-26T12:57:44.899Z,2.60
2023-01-26T13:00:22.036Z,2.80
2023-01-26T13:03:01.013Z,2.80
2023-01-26T13:05:32.165Z,2.90
2023-01-26T13:08:26.897Z,3.00
2023-01-26T13:10:57.316Z,3.00
2023-01-26T13:13:38.831Z,3.10
2023-01-26T13:16:42.233Z,3.20
2023-01-26T13:19:45.000Z,3.20
2023-01-26T13:22:47.667Z,3.30
2023-01-26T13:25:26.047Z,3.40
2023-01-26T13:28:14.074Z,3.50
2023-01-26T13:30:54.131Z,3.60
2023-01-26T13:33:25.126Z,3.70
2023-01-26T13:36:03.017Z,3.80
2023-01-26T13:38:36.764Z,3.90
2023-01-26T13:41:15.875Z,3.90
2023-01-26T13:43:51.658Z,4.00
2023-01-26T13:46:33.054Z,4.00
2023-01-26T13:49:01.684Z,4.10
2023-01-26T13:51:38.822Z,4.20
2023-01-26T13:54:11.103Z,4.30
2023-01-26T13:56:55.029Z,4.40
2023-01-26T13:59:33.228Z,4.40
2023-01-26T14:02:08.003Z,4.50
2023-01-26T14:04:38.153Z,4.50
2023-01-26T14:07:15.956Z,4.60
2023-01-26T14:09:48.510Z,4.60
2023-01-26T14:12:29.914Z,4.60
2023-01-26T14:15:03.293Z,4.60
2023-01-26T14:17:39.881Z,4.60
2023-01-26T14:20:20.800Z,4.70
2023-01-26T14:23:11.209Z,4.70
2023-01-26T14:25:40.814Z,4.80
2023-01-26T14:28:22.985Z,4.80
2023-01-26T14:31:03.011Z,4.80
2023-01-26T14:33:38.926Z,4.80
2023-01-26T14:36:08.091Z,4.90
2023-01-26T14:38:49.883Z,4.90
2023-01-26T14:41:23.034Z,4.90
2023-01-26T14:44:00.289Z,5.00
2023-01-26T14:46:38.101Z,5.00
2023-01-26T14:49:18.957Z,5.00
2023-01-26T14:51:50.631Z,5.00
2023-01-26T14:54:32.923Z,5.00
2023-01-26T14:57:09.844Z,4.90
2023-01-26T14:59:56.951Z,5.00
2023-01-26T15:02:28.789Z,5.00
2023-01-26T15:05:07.136Z,5.10
2023-01-26T15:07:39.115Z,5.10
2023-01-26T15:10:38.967Z,5.20
2023-01-26T15:13:25.943Z,5.20
2023-01-26T15:16:06.246Z,5.20
2023-01-26T15:18:43.165Z,5.20
2023-01-26T15:21:18.500Z,5.20
2023-01-26T15:23:58.215Z,5.20
2023-01-26T15:26:29.491Z,5.20
2023-01-26T15:29:08.200Z,5.20
2023-01-26T15:31:38.912Z,5.20
2023-01-26T15:34:39.923Z,5.20
2023-01-26T15:37:28.978Z,5.20
2023-01-26T15:40:03.954Z,5.30
2023-01-26T15:42:33.497Z,5.30
2023-01-26T15:45:08.060Z,5.30
2023-01-26T15:47:36.885Z,5.30
2023-01-26T15:50:27.327Z,5.30
2023-01-26T15:52:56.675Z,5.30
2023-01-26T15:55:35.988Z,5.40
2023-01-26T15:58:04.627Z,5.40
2023-01-26T16:00:40.209Z,5.40
2023-01-26T16:03:15.001Z,5.40
2023-01-26T16:05:54.393Z,5.30
2023-01-26T16:08:22.836Z,5.40
2023-01-26T16:10:58.025Z,5.40
2023-01-26T16:13:26.465Z,5.40
2023-01-26T16:16:02.135Z,5.40
2023-01-26T16:18:31.026Z,5.40
2023-01-26T16:21:26.127Z,5.40
2023-01-26T16:23:54.764Z,5.40
2023-01-26T16:26:30.035Z,5.40
2023-01-26T16:28:59.013Z,5.40
2023-01-26T16:31:39.365Z,5.40
2023-01-26T16:34:08.238Z,5.40
2023-01-26T16:36:45.017Z,5.40
2023-01-26T16:39:13.552Z,5.40
2023-01-26T16:41:48.994Z,5.40
2023-01-26T16:44:19.817Z,5.40
2023-01-26T16:46:55.115Z,5.40
2023-01-26T16:49:23.519Z,5.40
2023-01-26T16:52:00.234Z,5.40
2023-01-26T16:54:28.668Z,5.40
2023-01-26T16:57:10.083Z,5.40
2023-01-26T16:59:45.454Z,5.40
2023-01-26T17:02:31.285Z,5.40
2023-01-26T17:04:59.763Z,5.40
2023-01-26T17:07:35.996Z,5.40
2023-01-26T17:10:04.177Z,5.40
2023-01-26T17:12:40.040Z,5.40
2023-01-26T17:15:11.885Z,5.40
2023-01-26T17:17:47.155Z,5.40
2023-01-26T17:20:20.020Z,5.40
2023-01-26T17:22:57.223Z,5.40
2023-01-26T17:25:25.875Z,5.40
2023-01-26T17:28:01.110Z,5.40
2023-01-26T17:30:30.232Z,5.40
2023-01-26T17:33:05.105Z,5.40
2023-01-26T17:35:33.387Z,5.50
2023-01-26T17:38:10.141Z,5.50
2023-01-26T17:40:38.580Z,5.50
2023-01-26T17:43:14.381Z,5.50
2023-01-26T17:45:43.264Z,5.50
2023-01-26T17:48:18.086Z,5.50
2023-01-26T17:50:49.949Z,5.50
2023-01-26T17:53:26.252Z,5.60
2023-01-26T17:56:01.959Z,5.60
2023-01-26T17:58:44.269Z,5.60
2023-01-26T18:01:13.344Z,5.60
2023-01-26T18:03:49.286Z,5.60
2023-01-26T18:06:18.152Z,5.60
2023-01-26T18:08:55.115Z,5.60
2023-01-26T18:11:24.121Z,5.60
2023-01-26T18:13:59.312Z,5.60
2023-01-26T18:16:28.296Z,5.50
2023-01-26T18:19:04.371Z,5.50
2023-01-26T18:21:34.850Z,5.50
2023-01-26T18:24:13.141Z,5.50
2023-01-26T18:26:43.265Z,5.40
2023-01-26T18:29:19.290Z,5.40
2023-01-26T18:31:54.314Z,5.30
2023-01-26T18:34:22.572Z,5.30
2023-01-26T18:36:57.278Z,5.30
2023-01-26T18:39:29.120Z,5.30
2023-01-26T18:42:04.311Z,5.30
2023-01-26T18:44:33.025Z,5.30
2023-01-26T18:47:08.189Z,5.30
2023-01-26T18:49:36.666Z,5.30
2023-01-26T18:52:12.381Z,5.30
2023-01-26T18:54:42.796Z,5.30
2023-01-26T18:57:24.307Z,5.30
2023-01-26T18:59:59.333Z,5.30
2023-01-26T19:02:38.776Z,5.30
2023-01-26T19:05:08.678Z,5.30
2023-01-26T19:07:44.157Z,5.30
2023-01-26T19:10:14.909Z,5.30
2023-01-26T19:12:49.269Z,5.20
2023-01-26T19:15:17.769Z,5.20
2023-01-26T19:17:53.119Z,5.20
2023-01-26T19:20:22.577Z,5.20
2023-01-26T19:23:02.493Z,5.20
2023-01-26T19:25:32.478Z,5.20
2023-01-26T19:28:07.161Z,5.20
2023-01-26T19:30:36.197Z,5.20
2023-01-26T19:33:28.287Z,5.10
2023-01-26T19:35:58.057Z,5.20
2023-01-26T19:38:33.325Z,5.20
2023-01-26T19:41:04.083Z,5.10
2023-01-26T19:43:39.174Z,5.10
2023-01-26T19:46:08.470Z,5.10
2023-01-26T19:48:44.934Z,5.10
2023-01-26T19:51:14.866Z,5.10
2023-01-26T19:53:51.420Z,5.10
2023-01-26T19:56:40.623Z,5.10
2023-01-26T19:59:22.368Z,5.10
2023-01-26T20:01:50.763Z,5.10
2023-01-26T20:04:27.195Z,5.10
2023-01-26T20:06:55.624Z,5.10
2023-01-26T20:09:30.206Z,5.10
2023-01-26T20:12:00.220Z,5.10
2023-01-26T20:14:35.381Z,5.10
2023-01-26T20:17:04.880Z,5.10
2023-01-26T20:19:42.439Z,5.10
2023-01-26T20:22:11.125Z,5.10
2023-01-26T20:24:47.411Z,5.10
2023-01-26T20:27:17.939Z,5.10
2023-01-26T20:29:53.245Z,5.10
2023-01-26T20:32:21.793Z,5.10
2023-01-26T20:34:57.254Z,5.10
2023-01-26T20:37:26.109Z,5.10
2023-01-26T20:40:01.413Z,5.00
2023-01-26T20:42:31.448Z,5.10
2023-01-26T20:45:06.485Z,5.10
2023-01-26T20:47:38.343Z,5.10
2023-01-26T20:50:15.397Z,5.10
2023-01-26T20:52:44.730Z,5.00
2023-01-26T20:55:20.305Z,5.00
2023-01-26T20:57:56.644Z,5.10
2023-01-26T21:00:31.238Z,5.00
2023-01-26T21:02:59.454Z,5.10
2023-01-26T21:05:34.206Z,5.00
2023-01-26T21:08:02.845Z,5.10
2023-01-26T21:10:38.445Z,5.10
2023-01-26T21:13:08.282Z,5.00
2023-01-26T21:15:43.564Z,5.10
2023-01-26T21:18:12.050Z,5.10
2023-01-26T21:20:47.414Z,5.10
2023-01-26T21:23:16.179Z,5.10
2023-01-26T21:25:51.255Z,5.10
2023-01-26T21:28:21.474Z,5.10
2023-01-26T21:31:07.572Z,5.10
2023-01-26T21:33:39.349Z,5.10
2023-01-26T21:36:16.492Z,5.10
2023-01-26T21:38:57.384Z,5.10
2023-01-26T21:41:44.833Z,5.10
2023-01-26T21:44:23.334Z,5.10
2023-01-26T21:46:53.995Z,5.10
2023-01-26T21:49:29.478Z,5.10
2023-01-26T21:52:15.999Z,5.10
2023-01-26T21:54:51.402Z,5.10
2023-01-26T21:58:08.457Z,5.10
2023-01-26T22:00:46.314Z,5.10
2023-01-26T22:03:14.877Z,5.10
2023-01-26T22:05:50.305Z,5.10
2023-01-26T22:08:18.692Z,5.20
2023-01-26T22:11:01.318Z,5.20
2023-01-26T22:13:29.787Z,5.20
2023-01-26T22:16:08.277Z,5.20
2023-01-26T22:18:37.229Z,5.20
2023-01-26T22:21:12.464Z,5.10
2023-01-26T22:23:41.696Z,5.10
2023-01-26T22:26:18.353Z,5.10
2023-01-26T22:28:51.603Z,5.10
2023-01-26T22:31:30.539Z,5.10
2023-01-26T22:34:00.978Z,5.10
2023-01-26T22:36:36.407Z,5.10
2023-01-26T22:39:05.133Z,5.10
2023-01-26T22:41:41.371Z,5.10
2023-01-26T22:44:10.048Z,5.10
2023-01-26T22:46:46.528Z,5.10
2023-01-26T22:49:15.124Z,5.20
2023-01-26T22:51:50.389Z,5.20
2023-01-26T22:54:18.897Z,5.20
2023-01-26T22:56:54.403Z,5.20
2023-01-26T22:59:22.820Z,5.20
2023-01-26T23:01:59.368Z,5.20
2023-01-26T23:04:28.033Z,5.20
2023-01-26T23:07:03.399Z,5.20
2023-01-26T23:09:31.807Z,5.10
2023-01-26T23:12:08.689Z,5.10
2023-01-26T23:14:37.185Z,5.20
2023-01-26T23:17:14.428Z,5.10
2023-01-26T23:19:43.296Z,5.10
2023-01-26T23:22:18.623Z,5.10
2023-01-26T23:25:13.443Z,5.10
2023-01-26T23:27:41.967Z,5.10
2023-01-26T23:30:12.025Z,5.10
2023-01-26T23:32:48.460Z,5.10
2023-01-26T23:35:17.314Z,5.10
2023-01-26T23:37:52.544Z,5.10
2023-01-26T23:40:21.333Z,5.10
2023-01-26T23:43:14.394Z,5.10
2023-01-26T23:45:51.422Z,5.10
2023-01-26T23:48:21.938Z,5.10
2023-01-26T23:50:57.397Z,5.10
2023-01-26T23:53:26.186Z,5.00
2023-01-26T23:56:01.415Z,5.10
2023-01-26T23:58:38.430Z,5.10
